sensor_id;sensor_type;location;lat;lon;timestamp;P1;durP1;ratioP1;P2;durP2;ratioP2
12878;SDS011;20617;49.476;10.986;2023-02-04T00:01:52;15.02;;;3.65;;
12878;SDS011;20617;49.476;10.986;2023-02-04T00:03:57;14.40;;;3.83;;
12878;SDS011;20617;49.476;10.986;2023-02-04T00:06:02;12.35;;;3.22;;
12878;SDS011;20617;49.476;10.986;2023-02-04T00:08:07;17.52;;;3.78;;
12878;SDS011;20617;49.476;10.986;2023-02-04T00:12:20;18.45;;;4.97;;
12878;SDS011;20617;49.476;10.986;2023-02-04T00:14:25;13.93;;;4.65;;
12878;SDS011;20617;49.476;10.986;2023-02-04T00:16:30;13.48;;;4.13;;
12878;SDS011;20617;49.476;10.986;2023-02-04T00:18:35;15.65;;;3.65;;
12878;SDS011;20617;49.476;10.986;2023-02-04T00:20:42;14.32;;;4.07;;
12878;SDS011;20617;49.476;10.986;2023-02-04T00:22:47;11.23;;;3.88;;
12878;SDS011;20617;49.476;10.986;2023-02-04T00:24:52;15.50;;;3.42;;
12878;SDS011;20617;49.476;10.986;2023-02-04T00:26:57;12.43;;;3.13;;
12878;SDS011;20617;49.476;10.986;2023-02-04T00:29:04;16.83;;;3.70;;
12878;SDS011;20617;49.476;10.986;2023-02-04T00:31:09;14.52;;;3.08;;
12878;SDS011;20617;49.476;10.986;2023-02-04T00:33:14;10.80;;;3.67;;
12878;SDS011;20617;49.476;10.986;2023-02-04T00:35:19;14.02;;;3.17;;
12878;SDS011;20617;49.476;10.986;2023-02-04T00:37:26;15.57;;;4.00;;
12878;SDS011;20617;49.476;10.986;2023-02-04T00:39:31;12.30;;;3.15;;
12878;SDS011;20617;49.476;10.986;2023-02-04T00:41:36;17.13;;;3.35;;
12878;SDS011;20617;49.476;10.986;2023-02-04T00:43:41;14.05;;;2.90;;
12878;SDS011;20617;49.476;10.986;2023-02-04T00:45:48;17.67;;;4.20;;
12878;SDS011;20617;49.476;10.986;2023-02-04T00:47:53;14.32;;;3.38;;
12878;SDS011;20617;49.476;10.986;2023-02-04T00:49:58;15.05;;;3.30;;
12878;SDS011;20617;49.476;10.986;2023-02-04T00:52:03;12.13;;;3.75;;
12878;SDS011;20617;49.476;10.986;2023-02-04T00:54:08;10.95;;;2.90;;
12878;SDS011;20617;49.476;10.986;2023-02-04T00:56:13;15.80;;;3.63;;
12878;SDS011;20617;49.476;10.986;2023-02-04T00:58:18;13.05;;;3.45;;
12878;SDS011;20617;49.476;10.986;2023-02-04T01:00:23;17.70;;;3.28;;
12878;SDS011;20617;49.476;10.986;2023-02-04T01:02:31;10.77;;;3.63;;
12878;SDS011;20617;49.476;10.986;2023-02-04T01:04:36;16.13;;;3.35;;
12878;SDS011;20617;49.476;10.986;2023-02-04T01:06:41;14.32;;;3.55;;
12878;SDS011;20617;49.476;10.986;2023-02-04T01:08:46;15.85;;;4.10;;
12878;SDS011;20617;49.476;10.986;2023-02-04T01:10:51;14.63;;;4.25;;
12878;SDS011;20617;49.476;10.986;2023-02-04T01:12:56;16.38;;;3.67;;
12878;SDS011;20617;49.476;10.986;2023-02-04T01:17:06;10.15;;;3.00;;
12878;SDS011;20617;49.476;10.986;2023-02-04T01:21:19;17.08;;;3.53;;
12878;SDS011;20617;49.476;10.986;2023-02-04T01:23:24;14.80;;;3.58;;
12878;SDS011;20617;49.476;10.986;2023-02-04T01:25:28;20.02;;;3.80;;
12878;SDS011;20617;49.476;10.986;2023-02-04T01:27:33;14.80;;;3.35;;
12878;SDS011;20617;49.476;10.986;2023-02-04T01:29:38;15.27;;;3.40;;
12878;SDS011;20617;49.476;10.986;2023-02-04T01:31:47;12.65;;;3.00;;
12878;SDS011;20617;49.476;10.986;2023-02-04T01:33:52;11.48;;;2.88;;
12878;SDS011;20617;49.476;10.986;2023-02-04T01:35:59;14.23;;;3.50;;
12878;SDS011;20617;49.476;10.986;2023-02-04T01:38:04;20.20;;;3.90;;
12878;SDS011;20617;49.476;10.986;2023-02-04T01:40:10;10.13;;;2.35;;
12878;SDS011;20617;49.476;10.986;2023-02-04T01:42:15;10.68;;;2.42;;
12878;SDS011;20617;49.476;10.986;2023-02-04T01:44:20;17.75;;;3.08;;
12878;SDS011;20617;49.476;10.986;2023-02-04T01:46:25;12.75;;;3.63;;
12878;SDS011;20617;49.476;10.986;2023-02-04T01:48:30;13.75;;;3.22;;
12878;SDS011;20617;49.476;10.986;2023-02-04T01:52:43;11.25;;;2.78;;
12878;SDS011;20617;49.476;10.986;2023-02-04T01:54:51;18.85;;;3.33;;
12878;SDS011;20617;49.476;10.986;2023-02-04T01:56:56;13.95;;;2.58;;
12878;SDS011;20617;49.476;10.986;2023-02-04T01:59:08;8.77;;;2.67;;
12878;SDS011;20617;49.476;10.986;2023-02-04T02:01:15;10.57;;;2.80;;
12878;SDS011;20617;49.476;10.986;2023-02-04T02:03:37;10.80;;;2.50;;
12878;SDS011;20617;49.476;10.986;2023-02-04T02:05:43;12.85;;;3.58;;
12878;SDS011;20617;49.476;10.986;2023-02-04T02:07:52;11.77;;;2.50;;
12878;SDS011;20617;49.476;10.986;2023-02-04T02:09:59;11.15;;;2.97;;
12878;SDS011;20617;49.476;10.986;2023-02-04T02:12:05;14.60;;;3.35;;
12878;SDS011;20617;49.476;10.986;2023-02-04T02:14:10;9.38;;;2.72;;
12878;SDS011;20617;49.476;10.986;2023-02-04T02:16:15;12.13;;;2.47;;
12878;SDS011;20617;49.476;10.986;2023-02-04T02:18:21;9.73;;;2.45;;
12878;SDS011;20617;49.476;10.986;2023-02-04T02:20:26;14.00;;;3.85;;
12878;SDS011;20617;49.476;10.986;2023-02-04T02:22:33;19.63;;;3.25;;
12878;SDS011;20617;49.476;10.986;2023-02-04T02:24:46;15.63;;;3.42;;
12878;SDS011;20617;49.476;10.986;2023-02-04T02:26:52;14.05;;;3.75;;
12878;SDS011;20617;49.476;10.986;2023-02-04T02:28:58;11.95;;;2.78;;
12878;SDS011;20617;49.476;10.986;2023-02-04T02:31:04;15.70;;;3.85;;
12878;SDS011;20617;49.476;10.986;2023-02-04T02:33:10;18.88;;;3.38;;
12878;SDS011;20617;49.476;10.986;2023-02-04T02:35:16;12.82;;;3.42;;
12878;SDS011;20617;49.476;10.986;2023-02-04T02:37:23;12.40;;;3.63;;
12878;SDS011;20617;49.476;10.986;2023-02-04T02:41:36;16.63;;;2.90;;
12878;SDS011;20617;49.476;10.986;2023-02-04T02:43:41;14.10;;;3.38;;
12878;SDS011;20617;49.476;10.986;2023-02-04T02:45:46;18.67;;;4.55;;
12878;SDS011;20617;49.476;10.986;2023-02-04T02:47:52;13.57;;;3.28;;
12878;SDS011;20617;49.476;10.986;2023-02-04T02:49:57;10.95;;;2.50;;
12878;SDS011;20617;49.476;10.986;2023-02-04T02:52:02;21.25;;;3.60;;
12878;SDS011;20617;49.476;10.986;2023-02-04T02:54:09;15.93;;;2.92;;
12878;SDS011;20617;49.476;10.986;2023-02-04T02:56:28;9.32;;;2.50;;
12878;SDS011;20617;49.476;10.986;2023-02-04T02:58:35;9.57;;;2.05;;
12878;SDS011;20617;49.476;10.986;2023-02-04T03:00:41;11.73;;;2.55;;
12878;SDS011;20617;49.476;10.986;2023-02-04T03:04:57;13.90;;;2.97;;
12878;SDS011;20617;49.476;10.986;2023-02-04T03:07:04;9.25;;;2.50;;
12878;SDS011;20617;49.476;10.986;2023-02-04T03:09:11;10.68;;;2.45;;
12878;SDS011;20617;49.476;10.986;2023-02-04T03:11:20;11.25;;;2.70;;
12878;SDS011;20617;49.476;10.986;2023-02-04T03:13:27;17.90;;;2.88;;
12878;SDS011;20617;49.476;10.986;2023-02-04T03:17:39;11.30;;;2.72;;
12878;SDS011;20617;49.476;10.986;2023-02-04T03:19:46;11.20;;;2.60;;
12878;SDS011;20617;49.476;10.986;2023-02-04T03:22:00;13.98;;;2.95;;
12878;SDS011;20617;49.476;10.986;2023-02-04T03:24:06;13.50;;;2.88;;
12878;SDS011;20617;49.476;10.986;2023-02-04T03:28:16;9.40;;;2.90;;
12878;SDS011;20617;49.476;10.986;2023-02-04T03:30:21;13.15;;;2.53;;
12878;SDS011;20617;49.476;10.986;2023-02-04T03:32:29;20.50;;;3.60;;
12878;SDS011;20617;49.476;10.986;2023-02-04T03:34:34;10.50;;;2.45;;
12878;SDS011;20617;49.476;10.986;2023-02-04T03:36:39;9.98;;;2.15;;
12878;SDS011;20617;49.476;10.986;2023-02-04T03:38:44;16.35;;;2.97;;
12878;SDS011;20617;49.476;10.986;2023-02-04T03:40:49;15.43;;;2.92;;
12878;SDS011;20617;49.476;10.986;2023-02-04T03:42:54;10.75;;;2.45;;
12878;SDS011;20617;49.476;10.986;2023-02-04T03:44:59;11.27;;;2.78;;
12878;SDS011;20617;49.476;10.986;2023-02-04T03:47:04;12.15;;;2.75;;
12878;SDS011;20617;49.476;10.986;2023-02-04T03:51:16;18.02;;;3.28;;
12878;SDS011;20617;49.476;10.986;2023-02-04T03:53:21;11.23;;;3.00;;
12878;SDS011;20617;49.476;10.986;2023-02-04T03:55:26;13.23;;;3.10;;
12878;SDS011;20617;49.476;10.986;2023-02-04T03:57:32;16.58;;;3.13;;
12878;SDS011;20617;49.476;10.986;2023-02-04T03:59:37;12.60;;;2.50;;
12878;SDS011;20617;49.476;10.986;2023-02-04T04:01:42;15.40;;;3.08;;
12878;SDS011;20617;49.476;10.986;2023-02-04T04:03:50;13.15;;;3.50;;
12878;SDS011;20617;49.476;10.986;2023-02-04T04:05:57;12.80;;;3.00;;
12878;SDS011;20617;49.476;10.986;2023-02-04T04:08:02;15.18;;;3.97;;
12878;SDS011;20617;49.476;10.986;2023-02-04T04:10:07;13.38;;;2.60;;
12878;SDS011;20617;49.476;10.986;2023-02-04T04:12:13;13.55;;;2.90;;
12878;SDS011;20617;49.476;10.986;2023-02-04T04:14:17;12.88;;;2.80;;
12878;SDS011;20617;49.476;10.986;2023-02-04T04:16:22;11.73;;;2.78;;
12878;SDS011;20617;49.476;10.986;2023-02-04T04:18:27;13.50;;;3.72;;
12878;SDS011;20617;49.476;10.986;2023-02-04T04:20:33;8.85;;;2.65;;
12878;SDS011;20617;49.476;10.986;2023-02-04T04:22:40;15.60;;;3.30;;
12878;SDS011;20617;49.476;10.986;2023-02-04T04:24:46;10.60;;;2.90;;
12878;SDS011;20617;49.476;10.986;2023-02-04T04:26:51;15.77;;;3.13;;
12878;SDS011;20617;49.476;10.986;2023-02-04T04:28:56;17.15;;;3.17;;
12878;SDS011;20617;49.476;10.986;2023-02-04T04:31:01;14.57;;;3.72;;
12878;SDS011;20617;49.476;10.986;2023-02-04T04:35:10;14.07;;;3.85;;
12878;SDS011;20617;49.476;10.986;2023-02-04T04:37:15;14.93;;;2.78;;
12878;SDS011;20617;49.476;10.986;2023-02-04T04:39:23;12.50;;;3.58;;
12878;SDS011;20617;49.476;10.986;2023-02-04T04:41:28;13.38;;;2.70;;
12878;SDS011;20617;49.476;10.986;2023-02-04T04:43:32;10.93;;;2.78;;
12878;SDS011;20617;49.476;10.986;2023-02-04T04:45:37;12.95;;;3.88;;
12878;SDS011;20617;49.476;10.986;2023-02-04T04:47:42;14.02;;;3.00;;
12878;SDS011;20617;49.476;10.986;2023-02-04T04:49:47;10.77;;;2.63;;
12878;SDS011;20617;49.476;10.986;2023-02-04T04:51:52;13.75;;;2.80;;
12878;SDS011;20617;49.476;10.986;2023-02-04T04:53:57;13.20;;;2.72;;
12878;SDS011;20617;49.476;10.986;2023-02-04T04:56:05;13.73;;;3.85;;
12878;SDS011;20617;49.476;10.986;2023-02-04T04:58:10;12.63;;;3.00;;
12878;SDS011;20617;49.476;10.986;2023-02-04T05:00:15;13.35;;;3.05;;
12878;SDS011;20617;49.476;10.986;2023-02-04T05:02:23;16.60;;;3.35;;
12878;SDS011;20617;49.476;10.986;2023-02-04T05:04:28;14.23;;;3.67;;
12878;SDS011;20617;49.476;10.986;2023-02-04T05:06:33;14.38;;;2.97;;
12878;SDS011;20617;49.476;10.986;2023-02-04T05:08:38;13.70;;;3.10;;
12878;SDS011;20617;49.476;10.986;2023-02-04T05:10:43;14.07;;;3.38;;
12878;SDS011;20617;49.476;10.986;2023-02-04T05:14:55;18.35;;;3.22;;
12878;SDS011;20617;49.476;10.986;2023-02-04T05:17:00;13.52;;;3.25;;
12878;SDS011;20617;49.476;10.986;2023-02-04T05:19:05;16.88;;;3.60;;
12878;SDS011;20617;49.476;10.986;2023-02-04T05:21:10;19.25;;;3.28;;
12878;SDS011;20617;49.476;10.986;2023-02-04T05:23:15;14.25;;;3.08;;
12878;SDS011;20617;49.476;10.986;2023-02-04T05:27:24;16.25;;;4.05;;
12878;SDS011;20617;49.476;10.986;2023-02-04T05:29:32;17.10;;;3.83;;
12878;SDS011;20617;49.476;10.986;2023-02-04T05:31:37;13.75;;;3.13;;
12878;SDS011;20617;49.476;10.986;2023-02-04T05:33:42;13.13;;;2.58;;
12878;SDS011;20617;49.476;10.986;2023-02-04T05:35:46;17.98;;;3.65;;
12878;SDS011;20617;49.476;10.986;2023-02-04T05:37:51;14.05;;;2.95;;
12878;SDS011;20617;49.476;10.986;2023-02-04T05:39:56;17.52;;;3.47;;
12878;SDS011;20617;49.476;10.986;2023-02-04T05:44:06;15.70;;;2.88;;
12878;SDS011;20617;49.476;10.986;2023-02-04T05:46:13;12.05;;;2.67;;
12878;SDS011;20617;49.476;10.986;2023-02-04T05:48:18;14.40;;;3.15;;
12878;SDS011;20617;49.476;10.986;2023-02-04T05:50:23;16.08;;;3.28;;
12878;SDS011;20617;49.476;10.986;2023-02-04T05:52:41;11.40;;;2.95;;
12878;SDS011;20617;49.476;10.986;2023-02-04T05:54:46;12.20;;;2.45;;
12878;SDS011;20617;49.476;10.986;2023-02-04T05:56:51;9.57;;;2.50;;
12878;SDS011;20617;49.476;10.986;2023-02-04T05:58:56;13.77;;;3.13;;
12878;SDS011;20617;49.476;10.986;2023-02-04T06:01:02;18.83;;;4.75;;
12878;SDS011;20617;49.476;10.986;2023-02-04T06:03:09;20.42;;;3.35;;
12878;SDS011;20617;49.476;10.986;2023-02-04T06:05:15;14.85;;;2.75;;
12878;SDS011;20617;49.476;10.986;2023-02-04T06:07:20;17.65;;;3.08;;
12878;SDS011;20617;49.476;10.986;2023-02-04T06:09:24;13.15;;;2.70;;
12878;SDS011;20617;49.476;10.986;2023-02-04T06:11:29;14.88;;;2.53;;
12878;SDS011;20617;49.476;10.986;2023-02-04T06:13:34;12.73;;;2.25;;
12878;SDS011;20617;49.476;10.986;2023-02-04T06:15:39;10.13;;;2.45;;
12878;SDS011;20617;49.476;10.986;2023-02-04T06:17:44;10.65;;;2.97;;
12878;SDS011;20617;49.476;10.986;2023-02-04T06:19:52;14.00;;;2.38;;
12878;SDS011;20617;49.476;10.986;2023-02-04T06:21:56;5.90;;;1.60;;
12878;SDS011;20617;49.476;10.986;2023-02-04T06:24:01;6.63;;;1.60;;
12878;SDS011;20617;49.476;10.986;2023-02-04T06:26:06;8.75;;;1.90;;
12878;SDS011;20617;49.476;10.986;2023-02-04T06:28:11;11.63;;;2.55;;
12878;SDS011;20617;49.476;10.986;2023-02-04T06:30:17;13.73;;;2.72;;
12878;SDS011;20617;49.476;10.986;2023-02-04T06:32:22;8.65;;;1.73;;
12878;SDS011;20617;49.476;10.986;2023-02-04T06:34:27;6.57;;;1.95;;
12878;SDS011;20617;49.476;10.986;2023-02-04T06:36:34;8.00;;;2.45;;
12878;SDS011;20617;49.476;10.986;2023-02-04T06:38:40;7.13;;;1.95;;
12878;SDS011;20617;49.476;10.986;2023-02-04T06:40:45;10.50;;;2.83;;
12878;SDS011;20617;49.476;10.986;2023-02-04T06:42:54;5.32;;;0.77;;
12878;SDS011;20617;49.476;10.986;2023-02-04T06:45:01;3.55;;;1.02;;
12878;SDS011;20617;49.476;10.986;2023-02-04T06:47:06;2.28;;;0.80;;
12878;SDS011;20617;49.476;10.986;2023-02-04T06:49:11;2.70;;;0.95;;
12878;SDS011;20617;49.476;10.986;2023-02-04T06:51:16;2.45;;;0.90;;
12878;SDS011;20617;49.476;10.986;2023-02-04T06:53:24;1.42;;;0.85;;
12878;SDS011;20617;49.476;10.986;2023-02-04T06:55:29;1.10;;;0.90;;
12878;SDS011;20617;49.476;10.986;2023-02-04T06:59:39;1.38;;;0.90;;
12878;SDS011;20617;49.476;10.986;2023-02-04T07:01:44;2.45;;;1.33;;
12878;SDS011;20617;49.476;10.986;2023-02-04T07:05:54;2.65;;;1.20;;
12878;SDS011;20617;49.476;10.986;2023-02-04T07:07:59;1.80;;;0.95;;
12878;SDS011;20617;49.476;10.986;2023-02-04T07:10:06;2.20;;;0.95;;
12878;SDS011;20617;49.476;10.986;2023-02-04T07:12:12;2.35;;;1.20;;
12878;SDS011;20617;49.476;10.986;2023-02-04T07:14:17;1.20;;;0.90;;
12878;SDS011;20617;49.476;10.986;2023-02-04T07:16:22;3.70;;;1.23;;
12878;SDS011;20617;49.476;10.986;2023-02-04T07:18:27;1.55;;;1.38;;
12878;SDS011;20617;49.476;10.986;2023-02-04T07:20:32;2.72;;;1.50;;
12878;SDS011;20617;49.476;10.986;2023-02-04T07:22:36;2.53;;;1.45;;
12878;SDS011;20617;49.476;10.986;2023-02-04T07:24:42;3.20;;;1.67;;
12878;SDS011;20617;49.476;10.986;2023-02-04T07:26:50;4.78;;;1.58;;
12878;SDS011;20617;49.476;10.986;2023-02-04T07:28:55;4.57;;;1.50;;
12878;SDS011;20617;49.476;10.986;2023-02-04T07:31:00;2.75;;;1.48;;
12878;SDS011;20617;49.476;10.986;2023-02-04T07:33:05;1.75;;;1.30;;
12878;SDS011;20617;49.476;10.986;2023-02-04T07:35:10;2.15;;;1.52;;
12878;SDS011;20617;49.476;10.986;2023-02-04T07:39:21;2.95;;;1.20;;
12878;SDS011;20617;49.476;10.986;2023-02-04T07:43:33;3.03;;;1.10;;
12878;SDS011;20617;49.476;10.986;2023-02-04T07:45:38;1.95;;;1.25;;
12878;SDS011;20617;49.476;10.986;2023-02-04T07:47:43;1.08;;;0.98;;
12878;SDS011;20617;49.476;10.986;2023-02-04T07:49:53;1.80;;;0.98;;
12878;SDS011;20617;49.476;10.986;2023-02-04T07:51:59;2.25;;;1.25;;
12878;SDS011;20617;49.476;10.986;2023-02-04T07:54:04;2.08;;;1.00;;
12878;SDS011;20617;49.476;10.986;2023-02-04T07:56:09;2.17;;;1.35;;
12878;SDS011;20617;49.476;10.986;2023-02-04T07:58:14;2.58;;;1.15;;
12878;SDS011;20617;49.476;10.986;2023-02-04T08:00:21;2.50;;;1.23;;
12878;SDS011;20617;49.476;10.986;2023-02-04T08:02:26;2.03;;;1.30;;
12878;SDS011;20617;49.476;10.986;2023-02-04T08:04:31;3.08;;;1.85;;
12878;SDS011;20617;49.476;10.986;2023-02-04T08:06:36;2.45;;;1.42;;
12878;SDS011;20617;49.476;10.986;2023-02-04T08:08:41;2.38;;;1.23;;
12878;SDS011;20617;49.476;10.986;2023-02-04T08:10:46;1.95;;;1.50;;
12878;SDS011;20617;49.476;10.986;2023-02-04T08:12:51;2.38;;;1.40;;
12878;SDS011;20617;49.476;10.986;2023-02-04T08:14:55;2.38;;;1.60;;
12878;SDS011;20617;49.476;10.986;2023-02-04T08:17:04;7.38;;;4.07;;
12878;SDS011;20617;49.476;10.986;2023-02-04T08:19:10;5.10;;;3.28;;
12878;SDS011;20617;49.476;10.986;2023-02-04T08:21:19;5.07;;;2.65;;
12878;SDS011;20617;49.476;10.986;2023-02-04T08:23:24;7.45;;;4.28;;
12878;SDS011;20617;49.476;10.986;2023-02-04T08:25:29;4.95;;;3.67;;
12878;SDS011;20617;49.476;10.986;2023-02-04T08:27:34;3.20;;;1.77;;
12878;SDS011;20617;49.476;10.986;2023-02-04T08:29:41;3.22;;;1.60;;
12878;SDS011;20617;49.476;10.986;2023-02-04T08:31:46;1.83;;;1.23;;
12878;SDS011;20617;49.476;10.986;2023-02-04T08:33:54;1.80;;;1.17;;
12878;SDS011;20617;49.476;10.986;2023-02-04T08:35:59;6.95;;;1.60;;
12878;SDS011;20617;49.476;10.986;2023-02-04T08:38:04;2.63;;;1.23;;
12878;SDS011;20617;49.476;10.986;2023-02-04T08:40:12;1.90;;;1.25;;
12878;SDS011;20617;49.476;10.986;2023-02-04T08:42:17;1.98;;;1.45;;
12878;SDS011;20617;49.476;10.986;2023-02-04T08:44:22;10.82;;;4.97;;
12878;SDS011;20617;49.476;10.986;2023-02-04T08:46:27;3.85;;;2.35;;
12878;SDS011;20617;49.476;10.986;2023-02-04T08:50:39;3.00;;;1.63;;
12878;SDS011;20617;49.476;10.986;2023-02-04T08:52:44;2.50;;;1.48;;
12878;SDS011;20617;49.476;10.986;2023-02-04T08:54:49;1.50;;;1.10;;
12878;SDS011;20617;49.476;10.986;2023-02-04T08:56:54;1.85;;;1.13;;
12878;SDS011;20617;49.476;10.986;2023-02-04T08:58:58;1.98;;;1.55;;
12878;SDS011;20617;49.476;10.986;2023-02-04T09:01:03;2.40;;;1.30;;
12878;SDS011;20617;49.476;10.986;2023-02-04T09:03:08;2.08;;;1.30;;
12878;SDS011;20617;49.476;10.986;2023-02-04T09:05:13;1.10;;;1.00;;
12878;SDS011;20617;49.476;10.986;2023-02-04T09:07:21;3.10;;;1.20;;
12878;SDS011;20617;49.476;10.986;2023-02-04T09:09:25;1.55;;;1.25;;
12878;SDS011;20617;49.476;10.986;2023-02-04T09:11:30;2.05;;;1.00;;
12878;SDS011;20617;49.476;10.986;2023-02-04T09:13:35;1.45;;;1.30;;
12878;SDS011;20617;49.476;10.986;2023-02-04T09:15:44;1.95;;;1.20;;
12878;SDS011;20617;49.476;10.986;2023-02-04T09:17:49;1.38;;;1.05;;
12878;SDS011;20617;49.476;10.986;2023-02-04T09:20:02;1.10;;;0.70;;
12878;SDS011;20617;49.476;10.986;2023-02-04T09:22:07;1.60;;;1.02;;
12878;SDS011;20617;49.476;10.986;2023-02-04T09:24:16;1.15;;;1.00;;
12878;SDS011;20617;49.476;10.986;2023-02-04T09:26:24;2.63;;;1.55;;
12878;SDS011;20617;49.476;10.986;2023-02-04T09:28:29;1.73;;;1.08;;
12878;SDS011;20617;49.476;10.986;2023-02-04T09:30:34;1.88;;;1.20;;
12878;SDS011;20617;49.476;10.986;2023-02-04T09:32:39;3.10;;;1.38;;
12878;SDS011;20617;49.476;10.986;2023-02-04T09:36:49;1.90;;;1.20;;
12878;SDS011;20617;49.476;10.986;2023-02-04T09:38:54;2.28;;;1.48;;
12878;SDS011;20617;49.476;10.986;2023-02-04T09:41:02;2.58;;;1.27;;
12878;SDS011;20617;49.476;10.986;2023-02-04T09:43:11;3.15;;;1.30;;
12878;SDS011;20617;49.476;10.986;2023-02-04T09:45:21;2.65;;;1.20;;
12878;SDS011;20617;49.476;10.986;2023-02-04T09:47:28;1.60;;;1.00;;
12878;SDS011;20617;49.476;10.986;2023-02-04T09:49:34;3.28;;;1.15;;
12878;SDS011;20617;49.476;10.986;2023-02-04T09:51:40;1.38;;;1.08;;
12878;SDS011;20617;49.476;10.986;2023-02-04T09:53:46;1.95;;;1.00;;
12878;SDS011;20617;49.476;10.986;2023-02-04T09:55:54;3.03;;;1.33;;
12878;SDS011;20617;49.476;10.986;2023-02-04T10:00:14;2.97;;;1.70;;
12878;SDS011;20617;49.476;10.986;2023-02-04T10:02:21;4.20;;;2.42;;
12878;SDS011;20617;49.476;10.986;2023-02-04T10:04:28;3.05;;;1.30;;
12878;SDS011;20617;49.476;10.986;2023-02-04T10:06:33;3.08;;;1.70;;
12878;SDS011;20617;49.476;10.986;2023-02-04T10:08:38;3.15;;;1.60;;
12878;SDS011;20617;49.476;10.986;2023-02-04T10:10:47;1.42;;;0.90;;
12878;SDS011;20617;49.476;10.986;2023-02-04T10:12:54;1.10;;;0.95;;
12878;SDS011;20617;49.476;10.986;2023-02-04T10:15:04;2.22;;;0.88;;
12878;SDS011;20617;49.476;10.986;2023-02-04T10:17:12;2.47;;;1.15;;
12878;SDS011;20617;49.476;10.986;2023-02-04T10:19:20;1.33;;;0.98;;
12878;SDS011;20617;49.476;10.986;2023-02-04T10:21:27;2.38;;;1.20;;
12878;SDS011;20617;49.476;10.986;2023-02-04T10:23:37;2.00;;;1.30;;
12878;SDS011;20617;49.476;10.986;2023-02-04T10:25:42;3.63;;;1.20;;
12878;SDS011;20617;49.476;10.986;2023-02-04T10:27:47;0.70;;;0.70;;
12878;SDS011;20617;49.476;10.986;2023-02-04T10:29:54;0.70;;;0.70;;
12878;SDS011;20617;49.476;10.986;2023-02-04T10:32:02;1.67;;;0.93;;
12878;SDS011;20617;49.476;10.986;2023-02-04T10:34:12;1.35;;;0.98;;
12878;SDS011;20617;49.476;10.986;2023-02-04T10:36:19;2.08;;;0.90;;
12878;SDS011;20617;49.476;10.986;2023-02-04T10:38:24;3.05;;;1.50;;
12878;SDS011;20617;49.476;10.986;2023-02-04T10:40:30;5.75;;;1.20;;
12878;SDS011;20617;49.476;10.986;2023-02-04T10:42:36;1.85;;;1.00;;
12878;SDS011;20617;49.476;10.986;2023-02-04T10:44:53;1.30;;;0.80;;
12878;SDS011;20617;49.476;10.986;2023-02-04T10:46:59;2.15;;;1.25;;
12878;SDS011;20617;49.476;10.986;2023-02-04T10:49:15;1.30;;;0.70;;
12878;SDS011;20617;49.476;10.986;2023-02-04T10:51:21;1.50;;;0.60;;
12878;SDS011;20617;49.476;10.986;2023-02-04T10:53:27;1.80;;;0.80;;
12878;SDS011;20617;49.476;10.986;2023-02-04T10:55:44;0.50;;;0.50;;
12878;SDS011;20617;49.476;10.986;2023-02-04T10:57:52;1.20;;;0.73;;
12878;SDS011;20617;49.476;10.986;2023-02-04T11:00:03;1.00;;;0.70;;
12878;SDS011;20617;49.476;10.986;2023-02-04T11:02:27;1.42;;;0.70;;
12878;SDS011;20617;49.476;10.986;2023-02-04T11:04:38;1.15;;;0.65;;
12878;SDS011;20617;49.476;10.986;2023-02-04T11:06:45;0.85;;;0.60;;
12878;SDS011;20617;49.476;10.986;2023-02-04T11:08:50;1.63;;;0.60;;
12878;SDS011;20617;49.476;10.986;2023-02-04T11:10:56;0.98;;;0.50;;
12878;SDS011;20617;49.476;10.986;2023-02-04T11:13:04;1.88;;;0.50;;
12878;SDS011;20617;49.476;10.986;2023-02-04T11:17:57;1.13;;;0.60;;
12878;SDS011;20617;49.476;10.986;2023-02-04T11:20:13;1.50;;;0.50;;
12878;SDS011;20617;49.476;10.986;2023-02-04T11:22:20;1.05;;;0.60;;
12878;SDS011;20617;49.476;10.986;2023-02-04T11:24:26;1.35;;;1.20;;
12878;SDS011;20617;49.476;10.986;2023-02-04T11:26:37;1.20;;;0.70;;
12878;SDS011;20617;49.476;10.986;2023-02-04T11:28:50;1.35;;;0.88;;
12878;SDS011;20617;49.476;10.986;2023-02-04T11:30:59;0.73;;;0.50;;
12878;SDS011;20617;49.476;10.986;2023-02-04T11:33:22;0.85;;;0.60;;
12878;SDS011;20617;49.476;10.986;2023-02-04T11:35:28;0.93;;;0.68;;
12878;SDS011;20617;49.476;10.986;2023-02-04T11:37:35;0.77;;;0.60;;
12878;SDS011;20617;49.476;10.986;2023-02-04T11:39:41;1.40;;;0.82;;
12878;SDS011;20617;49.476;10.986;2023-02-04T11:41:48;1.25;;;0.70;;
12878;SDS011;20617;49.476;10.986;2023-02-04T11:46:00;1.52;;;0.65;;
12878;SDS011;20617;49.476;10.986;2023-02-04T11:48:10;1.48;;;0.80;;
12878;SDS011;20617;49.476;10.986;2023-02-04T11:50:21;2.60;;;1.20;;
12878;SDS011;20617;49.476;10.986;2023-02-04T11:52:29;2.20;;;1.00;;
12878;SDS011;20617;49.476;10.986;2023-02-04T11:54:38;1.95;;;1.00;;
12878;SDS011;20617;49.476;10.986;2023-02-04T11:56:43;2.40;;;1.42;;
12878;SDS011;20617;49.476;10.986;2023-02-04T11:58:49;2.15;;;1.13;;
12878;SDS011;20617;49.476;10.986;2023-02-04T12:00:54;2.40;;;0.95;;
12878;SDS011;20617;49.476;10.986;2023-02-04T12:02:59;1.38;;;0.90;;
12878;SDS011;20617;49.476;10.986;2023-02-04T12:05:10;2.28;;;1.60;;
12878;SDS011;20617;49.476;10.986;2023-02-04T12:07:19;2.75;;;1.20;;
12878;SDS011;20617;49.476;10.986;2023-02-04T12:09:27;1.48;;;1.00;;
12878;SDS011;20617;49.476;10.986;2023-02-04T12:11:33;3.58;;;1.38;;
12878;SDS011;20617;49.476;10.986;2023-02-04T12:13:48;6.13;;;1.27;;
12878;SDS011;20617;49.476;10.986;2023-02-04T12:15:57;3.50;;;1.00;;
12878;SDS011;20617;49.476;10.986;2023-02-04T12:18:04;2.08;;;0.88;;
12878;SDS011;20617;49.476;10.986;2023-02-04T12:20:11;1.15;;;0.90;;
12878;SDS011;20617;49.476;10.986;2023-02-04T12:22:16;2.47;;;0.90;;
12878;SDS011;20617;49.476;10.986;2023-02-04T12:24:23;1.15;;;0.80;;
12878;SDS011;20617;49.476;10.986;2023-02-04T12:26:28;1.70;;;1.00;;
12878;SDS011;20617;49.476;10.986;2023-02-04T12:28:33;1.98;;;0.90;;
12878;SDS011;20617;49.476;10.986;2023-02-04T12:30:38;2.42;;;1.75;;
12878;SDS011;20617;49.476;10.986;2023-02-04T12:32:43;2.55;;;1.45;;
12878;SDS011;20617;49.476;10.986;2023-02-04T12:34:48;2.50;;;1.50;;
12878;SDS011;20617;49.476;10.986;2023-02-04T12:36:53;3.40;;;1.38;;
12878;SDS011;20617;49.476;10.986;2023-02-04T12:39:00;3.35;;;1.40;;
12878;SDS011;20617;49.476;10.986;2023-02-04T12:41:05;1.67;;;0.90;;
12878;SDS011;20617;49.476;10.986;2023-02-04T12:43:10;2.90;;;1.20;;
12878;SDS011;20617;49.476;10.986;2023-02-04T12:45:16;2.65;;;1.27;;
12878;SDS011;20617;49.476;10.986;2023-02-04T12:47:21;3.80;;;1.10;;
12878;SDS011;20617;49.476;10.986;2023-02-04T12:49:26;4.13;;;1.40;;
12878;SDS011;20617;49.476;10.986;2023-02-04T12:51:31;4.00;;;1.30;;
12878;SDS011;20617;49.476;10.986;2023-02-04T12:53:36;1.25;;;1.00;;
12878;SDS011;20617;49.476;10.986;2023-02-04T12:55:44;0.95;;;0.80;;
12878;SDS011;20617;49.476;10.986;2023-02-04T12:57:49;1.30;;;0.90;;
12878;SDS011;20617;49.476;10.986;2023-02-04T12:59:54;3.55;;;1.02;;
12878;SDS011;20617;49.476;10.986;2023-02-04T13:02:00;1.48;;;0.80;;
12878;SDS011;20617;49.476;10.986;2023-02-04T13:04:05;1.92;;;1.33;;
12878;SDS011;20617;49.476;10.986;2023-02-04T13:06:10;2.33;;;1.50;;
12878;SDS011;20617;49.476;10.986;2023-02-04T13:08:15;1.98;;;1.08;;
12878;SDS011;20617;49.476;10.986;2023-02-04T13:10:22;2.25;;;1.00;;
12878;SDS011;20617;49.476;10.986;2023-02-04T13:12:31;5.78;;;1.08;;